createdAt,value
2023-12-26T00:00:17.704Z,46.57
2023-12-26T00:01:18.016Z,47.21
2023-12-26T00:02:17.788Z,48.82
2023-12-26T00:03:17.839Z,49.15
2023-12-26T00:04:19.023Z,45.92
2023-12-26T00:05:17.742Z,46.89
2023-12-26T00:06:17.796Z,46.73
2023-12-26T00:07:17.772Z,46.73
2023-12-26T00:08:17.872Z,47.21
2023-12-26T00:09:17.744Z,48.18
2023-12-26T00:10:17.985Z,47.86
2023-12-26T00:11:17.846Z,46.41
2023-12-26T00:12:17.991Z,46.73
2023-12-26T00:13:17.707Z,47.21
2023-12-26T00:14:17.696Z,47.21
2023-12-26T00:15:17.764Z,47.70
2023-12-26T00:16:17.756Z,47.37
2023-12-26T00:17:17.934Z,45.92
2023-12-26T00:18:17.962Z,47.21
2023-12-26T00:19:18.713Z,46.73
2023-12-26T00:20:17.669Z,47.05
2023-12-26T00:21:17.647Z,48.02
2023-12-26T00:22:17.680Z,47.21
2023-12-26T00:23:17.547Z,47.70
2023-12-26T00:24:17.791Z,48.34
2023-12-26T00:25:17.560Z,48.50
2023-12-26T00:26:17.588Z,47.37
2023-12-26T00:27:17.951Z,47.05
2023-12-26T00:28:17.607Z,47.53
2023-12-26T00:29:17.693Z,47.70
2023-12-26T00:30:17.537Z,46.73
2023-12-26T00:31:17.603Z,48.66
2023-12-26T00:32:17.844Z,47.86
2023-12-26T00:33:17.669Z,47.53
2023-12-26T00:34:17.936Z,48.82
2023-12-26T00:35:17.469Z,48.18
2023-12-26T00:36:17.708Z,49.31
2023-12-26T00:37:17.644Z,48.82
2023-12-26T00:38:17.386Z,47.70
2023-12-26T00:39:17.558Z,47.53
2023-12-26T00:40:17.494Z,47.53
2023-12-26T00:41:17.417Z,47.70
2023-12-26T00:42:17.567Z,47.05
2023-12-26T00:43:17.481Z,47.37
2023-12-26T00:44:17.784Z,47.53
2023-12-26T00:45:17.497Z,47.37
2023-12-26T00:46:17.550Z,48.66
2023-12-26T00:47:17.440Z,47.86
2023-12-26T00:48:17.434Z,48.98
2023-12-26T00:49:17.834Z,48.50
2023-12-26T00:50:17.624Z,47.86
2023-12-26T00:51:17.615Z,48.02
2023-12-26T00:52:17.296Z,48.34
2023-12-26T00:53:17.710Z,48.50
2023-12-26T00:54:17.321Z,50.27
2023-12-26T00:55:17.453Z,49.95
2023-12-26T00:56:17.279Z,48.18
2023-12-26T00:57:17.284Z,48.18
2023-12-26T00:58:17.374Z,46.89
2023-12-26T00:59:17.425Z,47.70
2023-12-26T01:00:17.298Z,49.63
2023-12-26T01:01:17.255Z,50.60
2023-12-26T01:02:17.284Z,48.98
2023-12-26T01:03:17.275Z,48.18
2023-12-26T01:04:17.292Z,48.66
2023-12-26T01:05:17.273Z,48.50
2023-12-26T01:06:17.211Z,49.47
2023-12-26T01:07:17.180Z,48.50
2023-12-26T01:08:17.175Z,47.70
2023-12-26T01:09:17.202Z,47.53
2023-12-26T01:10:17.375Z,48.02
2023-12-26T01:11:17.202Z,47.37
2023-12-26T01:12:17.189Z,47.86
2023-12-26T01:13:17.150Z,48.82
2023-12-26T01:14:17.177Z,47.37
2023-12-26T01:15:17.283Z,46.89
2023-12-26T01:16:17.131Z,46.89
2023-12-26T01:17:17.116Z,47.70
2023-12-26T01:18:17.185Z,48.18
2023-12-26T01:19:17.341Z,48.66
2023-12-26T01:20:17.080Z,47.21
2023-12-26T01:21:17.168Z,47.05
2023-12-26T01:22:17.086Z,47.21
2023-12-26T01:23:17.058Z,48.18
2023-12-26T01:24:17.095Z,48.98
2023-12-26T01:25:17.063Z,47.86
2023-12-26T01:26:17.566Z,47.37
2023-12-26T01:27:17.137Z,47.21
2023-12-26T01:28:17.048Z,46.73
2023-12-26T01:29:17.024Z,46.57
2023-12-26T01:30:17.164Z,47.70
2023-12-26T01:31:17.088Z,47.05
2023-12-26T01:32:17.002Z,47.21
2023-12-26T01:33:17.195Z,48.18
2023-12-26T01:34:17.103Z,48.34
2023-12-26T01:35:17.011Z,47.37
2023-12-26T01:36:17.240Z,48.82
2023-12-26T01:37:17.115Z,47.37
2023-12-26T01:38:17.016Z,46.41
2023-12-26T01:39:16.988Z,46.89
2023-12-26T01:40:16.946Z,47.37
2023-12-26T01:41:16.996Z,48.34
2023-12-26T01:42:16.971Z,47.86
2023-12-26T01:43:16.985Z,47.21
2023-12-26T01:44:16.919Z,47.53
2023-12-26T01:45:17.173Z,46.73
2023-12-26T01:46:16.914Z,47.37
2023-12-26T01:47:16.945Z,47.21
2023-12-26T01:48:17.155Z,47.37
2023-12-26T01:49:17.056Z,48.18
2023-12-26T01:50:16.879Z,48.18
2023-12-26T01:51:17.164Z,48.66
2023-12-26T01:52:17.038Z,48.34
2023-12-26T01:53:16.862Z,47.53
2023-12-26T01:54:16.872Z,47.37
2023-12-26T01:55:16.852Z,50.11
2023-12-26T01:56:16.840Z,48.18
2023-12-26T01:57:16.882Z,48.82
2023-12-26T01:58:16.822Z,49.15
2023-12-26T01:59:16.848Z,50.76
2023-12-26T02:00:16.908Z,47.53
2023-12-26T02:01:16.833Z,47.21
2023-12-26T02:02:16.901Z,49.63
2023-12-26T02:03:16.889Z,47.70
2023-12-26T02:04:16.867Z,48.82
2023-12-26T02:05:16.818Z,49.47
2023-12-26T02:06:16.817Z,48.82
2023-12-26T02:07:16.836Z,47.70
2023-12-26T02:08:18.578Z,47.53
2023-12-26T02:09:16.747Z,48.82
2023-12-26T02:10:16.766Z,48.66
2023-12-26T02:11:16.733Z,49.31
2023-12-26T02:12:16.754Z,49.31
2023-12-26T02:13:16.757Z,48.82
2023-12-26T02:14:16.701Z,49.79
2023-12-26T02:15:16.881Z,51.08
2023-12-26T02:16:16.727Z,48.82
2023-12-26T02:17:16.698Z,47.86
2023-12-26T02:18:16.792Z,48.18
2023-12-26T02:19:16.818Z,49.15
2023-12-26T02:20:16.660Z,49.31
2023-12-26T02:21:16.697Z,49.15
2023-12-26T02:22:16.690Z,48.82
2023-12-26T02:23:16.637Z,48.98
2023-12-26T02:24:16.729Z,48.18
2023-12-26T02:25:16.622Z,50.11
2023-12-26T02:26:16.804Z,48.98
2023-12-26T02:27:16.729Z,49.31
2023-12-26T02:28:16.592Z,49.15
2023-12-26T02:29:16.610Z,48.18
2023-12-26T02:30:16.666Z,48.66
2023-12-26T02:31:16.689Z,49.15
2023-12-26T02:32:16.897Z,49.31
2023-12-26T02:33:16.760Z,48.50
2023-12-26T02:34:16.705Z,49.63
2023-12-26T02:35:16.543Z,50.11
2023-12-26T02:36:16.539Z,48.98
2023-12-26T02:37:16.617Z,51.08
2023-12-26T02:38:16.522Z,49.15
2023-12-26T02:39:16.589Z,48.50
2023-12-26T02:40:16.503Z,49.15
2023-12-26T02:41:16.495Z,50.11
2023-12-26T02:42:16.594Z,49.31
2023-12-26T02:43:16.489Z,51.40
2023-12-26T02:44:16.489Z,49.95
2023-12-26T02:45:16.489Z,48.34
2023-12-26T02:46:16.461Z,48.66
2023-12-26T02:47:16.510Z,49.47
2023-12-26T02:48:16.590Z,48.66
2023-12-26T02:49:17.478Z,48.18
2023-12-26T02:50:16.429Z,48.82
2023-12-26T02:51:16.519Z,48.82
2023-12-26T02:52:16.437Z,47.37
2023-12-26T02:53:16.421Z,47.21
2023-12-26T02:54:16.478Z,48.02
2023-12-26T02:55:16.432Z,49.31
2023-12-26T02:56:16.398Z,49.79
2023-12-26T02:57:16.504Z,47.70
2023-12-26T02:58:16.387Z,47.53
2023-12-26T02:59:16.367Z,45.92
2023-12-26T03:00:16.539Z,45.92
2023-12-26T03:01:16.397Z,44.15
2023-12-26T03:02:16.340Z,45.12
2023-12-26T03:03:16.447Z,45.92
2023-12-26T03:04:16.341Z,46.08
2023-12-26T03:05:16.374Z,44.96
2023-12-26T03:06:16.340Z,44.79
2023-12-26T03:07:16.347Z,44.31
2023-12-26T03:08:16.452Z,47.05
2023-12-26T03:09:16.322Z,48.02
2023-12-26T03:10:16.296Z,45.76
2023-12-26T03:11:16.290Z,48.50
2023-12-26T03:12:16.301Z,45.92
2023-12-26T03:13:16.290Z,46.08
2023-12-26T03:14:16.303Z,45.92
2023-12-26T03:15:16.317Z,45.76
2023-12-26T03:16:16.247Z,47.21
2023-12-26T03:17:16.245Z,47.86
2023-12-26T03:18:16.481Z,45.60
2023-12-26T03:19:16.556Z,46.57
2023-12-26T03:20:16.232Z,46.41
2023-12-26T03:21:16.243Z,48.50
2023-12-26T03:22:16.211Z,46.08
2023-12-26T03:23:16.230Z,48.34
2023-12-26T03:24:16.235Z,46.89
2023-12-26T03:25:16.192Z,47.53
2023-12-26T03:26:16.190Z,45.28
2023-12-26T03:27:16.210Z,46.57
2023-12-26T03:28:16.276Z,45.44
2023-12-26T03:29:16.169Z,45.28
2023-12-26T03:30:16.196Z,46.08
2023-12-26T03:31:16.182Z,45.12
2023-12-26T03:32:16.150Z,43.99
2023-12-26T03:33:16.268Z,44.96
2023-12-26T03:34:16.353Z,45.60
2023-12-26T03:35:16.164Z,45.28
2023-12-26T03:36:16.178Z,45.12
2023-12-26T03:37:16.098Z,45.92
2023-12-26T03:38:16.127Z,44.47
2023-12-26T03:39:16.187Z,44.79
2023-12-26T03:40:16.084Z,45.60
2023-12-26T03:41:16.062Z,49.63
2023-12-26T03:42:16.203Z,46.25
2023-12-26T03:43:16.077Z,45.60
2023-12-26T03:44:16.151Z,46.73
2023-12-26T03:45:16.134Z,44.63
2023-12-26T03:46:16.064Z,44.96
2023-12-26T03:47:16.100Z,43.99
2023-12-26T03:48:16.190Z,44.96
2023-12-26T03:49:16.260Z,45.92
2023-12-26T03:50:16.051Z,46.41
2023-12-26T03:51:16.129Z,45.92
2023-12-26T03:52:16.009Z,45.92
2023-12-26T03:53:15.988Z,45.76
2023-12-26T03:54:16.006Z,46.08
2023-12-26T03:55:15.980Z,47.37
2023-12-26T03:56:15.958Z,46.41
2023-12-26T03:57:15.980Z,45.28
2023-12-26T03:58:15.953Z,45.60
2023-12-26T03:59:15.964Z,45.28
2023-12-26T04:00:16.100Z,45.92
2023-12-26T04:01:15.945Z,44.96
2023-12-26T04:02:15.929Z,45.44
2023-12-26T04:03:16.028Z,45.76
2023-12-26T04:04:16.024Z,45.28
2023-12-26T04:05:15.936Z,45.28
2023-12-26T04:06:15.891Z,44.79
2023-12-26T04:07:15.935Z,45.28
2023-12-26T04:08:15.901Z,46.08
2023-12-26T04:09:16.005Z,46.73
2023-12-26T04:10:15.884Z,45.92
2023-12-26T04:11:15.909Z,45.76
2023-12-26T04:12:15.911Z,47.05
2023-12-26T04:13:15.855Z,46.73
2023-12-26T04:14:15.854Z,47.05
2023-12-26T04:15:15.943Z,46.89
2023-12-26T04:16:15.819Z,46.73
2023-12-26T04:17:15.888Z,45.92
2023-12-26T04:18:15.930Z,45.60
2023-12-26T04:19:15.943Z,44.96
2023-12-26T04:20:15.790Z,46.08
2023-12-26T04:21:15.801Z,45.44
2023-12-26T04:22:15.803Z,45.28
2023-12-26T04:23:15.804Z,45.12
2023-12-26T04:24:15.874Z,45.76
2023-12-26T04:25:15.746Z,45.28
2023-12-26T04:26:15.742Z,45.60
2023-12-26T04:27:15.847Z,45.92
2023-12-26T04:28:15.728Z,46.41
2023-12-26T04:29:15.737Z,46.41
2023-12-26T04:30:15.808Z,46.73
2023-12-26T04:31:15.721Z,45.92
2023-12-26T04:32:15.706Z,45.44
2023-12-26T04:33:15.931Z,46.41
2023-12-26T04:34:15.854Z,46.73
2023-12-26T04:35:15.675Z,47.05
2023-12-26T04:36:15.732Z,47.05
2023-12-26T04:37:15.668Z,47.21
2023-12-26T04:38:15.661Z,47.53
2023-12-26T04:39:15.741Z,47.05
2023-12-26T04:40:15.650Z,46.41
2023-12-26T04:41:15.643Z,46.25
2023-12-26T04:42:15.673Z,47.05
2023-12-26T04:43:15.634Z,46.41
2023-12-26T04:44:15.652Z,46.25
2023-12-26T04:45:15.756Z,45.92
2023-12-26T04:46:15.613Z,46.25
2023-12-26T04:47:15.598Z,47.21
2023-12-26T04:48:15.767Z,46.57
2023-12-26T04:49:15.664Z,45.60
2023-12-26T04:50:15.595Z,46.41
2023-12-26T04:51:15.602Z,46.57
2023-12-26T04:52:15.818Z,46.73
2023-12-26T04:53:15.619Z,46.25
2023-12-26T04:54:15.575Z,45.92
2023-12-26T04:55:15.574Z,46.08
2023-12-26T04:56:15.534Z,48.02
2023-12-26T04:57:15.618Z,45.76
2023-12-26T04:58:15.522Z,47.37
2023-12-26T04:59:15.534Z,46.57
2023-12-26T05:00:15.589Z,46.57
2023-12-26T05:01:15.633Z,45.12
2023-12-26T05:02:15.491Z,46.25
2023-12-26T05:03:15.719Z,46.08
2023-12-26T05:04:15.590Z,45.92
2023-12-26T05:05:15.519Z,46.57
2023-12-26T05:06:15.577Z,46.57
2023-12-26T05:07:15.453Z,47.21
2023-12-26T05:08:15.454Z,47.53
2023-12-26T05:09:15.610Z,47.05
2023-12-26T05:10:15.477Z,47.05
2023-12-26T05:11:15.458Z,47.86
2023-12-26T05:12:15.543Z,47.21
2023-12-26T05:13:15.411Z,46.73
2023-12-26T05:14:15.409Z,46.89
2023-12-26T05:15:15.510Z,46.08
2023-12-26T05:16:15.404Z,46.08
2023-12-26T05:17:15.427Z,46.08
2023-12-26T05:18:15.465Z,47.37
2023-12-26T05:19:15.473Z,47.86
2023-12-26T05:20:26.212Z,47.05
2023-12-26T05:21:16.383Z,46.73
2023-12-26T05:22:15.363Z,46.73
2023-12-26T05:23:15.351Z,46.73
2023-12-26T05:24:15.398Z,47.53
2023-12-26T05:25:15.368Z,47.37
2023-12-26T05:26:15.320Z,46.08
2023-12-26T05:27:15.451Z,46.89
2023-12-26T05:28:15.325Z,46.73
2023-12-26T05:29:15.319Z,46.57
2023-12-26T05:30:15.421Z,46.73
2023-12-26T05:31:15.331Z,47.53
2023-12-26T05:32:15.407Z,46.89
2023-12-26T05:33:15.349Z,46.57
2023-12-26T05:34:15.330Z,46.41
2023-12-26T05:35:15.280Z,48.82
2023-12-26T05:36:15.298Z,47.05
2023-12-26T05:37:15.253Z,46.73
2023-12-26T05:38:15.238Z,46.57
2023-12-26T05:39:15.305Z,47.37
2023-12-26T05:40:15.274Z,46.57
2023-12-26T05:41:15.216Z,46.41
2023-12-26T05:42:15.324Z,46.73
2023-12-26T05:43:15.231Z,47.70
2023-12-26T05:44:15.227Z,46.41
2023-12-26T05:45:15.618Z,47.53
2023-12-26T05:46:15.199Z,47.86
2023-12-26T05:47:15.180Z,45.60
2023-12-26T05:48:15.456Z,45.92
2023-12-26T05:49:15.359Z,45.92
2023-12-26T05:50:15.233Z,47.21
2023-12-26T05:51:15.181Z,46.41
2023-12-26T05:52:15.131Z,46.41
2023-12-26T05:53:15.171Z,47.86
2023-12-26T05:54:15.193Z,48.18
2023-12-26T05:55:15.152Z,46.73
2023-12-26T05:56:15.110Z,46.73
2023-12-26T05:57:15.126Z,47.37
2023-12-26T05:58:15.108Z,45.60
2023-12-26T05:59:15.121Z,46.41
2023-12-26T06:00:15.163Z,47.70
2023-12-26T06:01:15.167Z,47.70
2023-12-26T06:02:15.076Z,46.57
2023-12-26T06:03:15.126Z,46.73
2023-12-26T06:04:15.122Z,47.53
2023-12-26T06:05:15.046Z,45.60
2023-12-26T06:06:15.239Z,46.57
2023-12-26T06:07:15.031Z,47.05
2023-12-26T06:08:15.027Z,48.18
2023-12-26T06:09:15.143Z,47.05
2023-12-26T06:10:15.025Z,48.18
2023-12-26T06:11:15.025Z,46.89
2023-12-26T06:12:15.029Z,47.37
2023-12-26T06:13:14.984Z,47.70
2023-12-26T06:14:15.091Z,47.21
2023-12-26T06:15:15.124Z,48.02
2023-12-26T06:16:14.978Z,46.73
2023-12-26T06:17:14.956Z,47.05
2023-12-26T06:18:15.083Z,47.05
2023-12-26T06:19:15.208Z,47.37
2023-12-26T06:20:15.024Z,48.50
2023-12-26T06:21:14.961Z,46.41
2023-12-26T06:22:14.942Z,47.70
2023-12-26T06:23:14.926Z,45.92
2023-12-26T06:24:14.989Z,46.08
2023-12-26T06:25:14.952Z,46.57
2023-12-26T06:26:14.943Z,46.41
2023-12-26T06:27:14.990Z,46.08
2023-12-26T06:28:14.924Z,46.73
2023-12-26T06:29:14.898Z,46.73
2023-12-26T06:30:14.946Z,47.21
2023-12-26T06:31:15.064Z,47.70
2023-12-26T06:32:14.873Z,47.21
2023-12-26T06:33:14.977Z,47.21
2023-12-26T06:34:14.970Z,46.41
2023-12-26T06:35:14.842Z,47.53
2023-12-26T06:36:14.978Z,47.21
2023-12-26T06:37:14.824Z,47.70
2023-12-26T06:38:14.827Z,51.88
2023-12-26T06:39:14.904Z,48.18
2023-12-26T06:40:14.796Z,48.18
2023-12-26T06:41:14.801Z,48.98
2023-12-26T06:42:14.872Z,50.11
2023-12-26T06:43:14.792Z,48.82
2023-12-26T06:44:14.786Z,47.70
2023-12-26T06:45:14.812Z,48.02
2023-12-26T06:46:14.768Z,48.34
2023-12-26T06:47:14.787Z,48.66
2023-12-26T06:48:14.915Z,47.53
2023-12-26T06:49:14.795Z,47.70
2023-12-26T06:50:14.757Z,48.18
2023-12-26T06:51:14.785Z,47.05
2023-12-26T06:52:14.713Z,47.37
2023-12-26T06:53:14.718Z,46.89
2023-12-26T06:54:14.811Z,47.86
2023-12-26T06:55:15.309Z,47.86
2023-12-26T06:56:14.717Z,47.70
2023-12-26T06:57:14.793Z,47.37
2023-12-26T06:58:14.750Z,47.53
2023-12-26T06:59:14.708Z,47.37
2023-12-26T07:00:14.744Z,47.37
2023-12-26T07:01:14.942Z,46.73
2023-12-26T07:02:16.477Z,47.21
2023-12-26T07:03:14.787Z,47.21
2023-12-26T07:04:14.694Z,47.21
2023-12-26T07:05:14.780Z,49.31
2023-12-26T07:06:14.678Z,51.08
2023-12-26T07:07:14.608Z,50.92
2023-12-26T07:08:14.601Z,50.76
2023-12-26T07:09:14.657Z,50.76
2023-12-26T07:10:14.625Z,50.60
2023-12-26T07:11:14.672Z,52.05
2023-12-26T07:12:14.636Z,52.05
2023-12-26T07:13:14.735Z,51.72
2023-12-26T07:14:14.565Z,51.24
2023-12-26T07:15:14.634Z,52.69
2023-12-26T07:16:14.598Z,52.37
2023-12-26T07:17:14.546Z,53.17
2023-12-26T07:18:14.625Z,54.62
2023-12-26T07:19:14.789Z,51.56
2023-12-26T07:20:14.536Z,52.21
2023-12-26T07:21:14.622Z,50.76
2023-12-26T07:22:14.529Z,49.15
2023-12-26T07:23:14.496Z,47.70
2023-12-26T07:24:14.621Z,46.57
2023-12-26T07:25:14.492Z,46.41
2023-12-26T07:26:14.497Z,45.76
2023-12-26T07:27:14.586Z,45.76
2023-12-26T07:28:14.466Z,46.41
2023-12-26T07:29:14.456Z,45.92
2023-12-26T07:30:14.693Z,45.76
2023-12-26T07:31:14.464Z,45.44
2023-12-26T07:32:14.443Z,46.08
2023-12-26T07:33:14.554Z,46.08
2023-12-26T07:34:14.503Z,46.08
2023-12-26T07:35:14.474Z,47.05
2023-12-26T07:36:14.449Z,46.25
2023-12-26T07:37:14.412Z,46.25
2023-12-26T07:38:14.411Z,45.76
2023-12-26T07:39:14.446Z,46.25
2023-12-26T07:40:14.443Z,46.73
2023-12-26T07:41:14.382Z,47.70
2023-12-26T07:42:14.493Z,45.60
2023-12-26T07:43:14.386Z,45.76
2023-12-26T07:44:14.364Z,45.76
2023-12-26T07:45:14.427Z,45.92
2023-12-26T07:46:14.363Z,45.76
2023-12-26T07:47:14.374Z,46.25
2023-12-26T07:48:14.501Z,45.76
2023-12-26T07:49:14.469Z,45.76
2023-12-26T07:50:14.534Z,45.76
2023-12-26T07:51:14.364Z,46.08
2023-12-26T07:52:14.318Z,46.73
2023-12-26T07:53:14.300Z,46.73
2023-12-26T07:54:14.404Z,45.76
2023-12-26T07:55:15.695Z,45.44
2023-12-26T07:56:14.279Z,47.21
2023-12-26T07:57:14.397Z,46.25
2023-12-26T07:58:14.277Z,45.12
2023-12-26T07:59:14.264Z,45.92
2023-12-26T08:00:14.877Z,45.92
2023-12-26T08:01:14.260Z,46.08
2023-12-26T08:02:14.236Z,45.12
2023-12-26T08:03:14.353Z,45.92
2023-12-26T08:04:14.364Z,45.76
2023-12-26T08:05:14.289Z,44.63
2023-12-26T08:06:14.353Z,45.60
2023-12-26T08:07:14.231Z,45.12
2023-12-26T08:08:14.193Z,45.28
2023-12-26T08:09:14.227Z,45.92
2023-12-26T08:10:14.223Z,45.28
2023-12-26T08:11:14.176Z,45.12
2023-12-26T08:12:14.272Z,45.44
2023-12-26T08:13:14.167Z,45.44
2023-12-26T08:14:14.158Z,44.96
2023-12-26T08:15:14.234Z,45.60
2023-12-26T08:16:14.144Z,45.76
2023-12-26T08:17:14.151Z,45.76
2023-12-26T08:18:14.262Z,45.92
2023-12-26T08:19:16.092Z,45.28
2023-12-26T08:20:14.140Z,44.79
2023-12-26T08:21:14.223Z,44.79
2023-12-26T08:22:14.143Z,44.63
2023-12-26T08:23:14.140Z,44.79
2023-12-26T08:24:14.102Z,46.73
2023-12-26T08:25:14.072Z,47.21
2023-12-26T08:26:14.119Z,48.66
2023-12-26T08:27:14.137Z,47.70
2023-12-26T08:28:14.068Z,47.70
2023-12-26T08:29:14.060Z,49.63
2023-12-26T08:30:14.144Z,46.73
2023-12-26T08:31:14.078Z,46.25
2023-12-26T08:32:14.028Z,45.44
2023-12-26T08:33:14.122Z,44.63
2023-12-26T08:34:14.133Z,44.63
2023-12-26T08:35:14.043Z,44.15
2023-12-26T08:36:14.053Z,44.47
2023-12-26T08:37:13.987Z,44.47
2023-12-26T08:38:14.016Z,44.31
2023-12-26T08:39:14.055Z,44.79
2023-12-26T08:40:13.969Z,44.63
2023-12-26T08:41:14.009Z,44.31
2023-12-26T08:42:14.101Z,44.15
2023-12-26T08:43:14.391Z,44.47
2023-12-26T08:44:13.948Z,44.96
2023-12-26T08:45:14.040Z,44.47
2023-12-26T08:46:13.948Z,44.96
2023-12-26T08:47:13.929Z,45.76
2023-12-26T08:48:14.101Z,45.12
2023-12-26T08:49:14.019Z,44.47
2023-12-26T08:50:13.939Z,44.96
2023-12-26T08:51:14.002Z,44.79
2023-12-26T08:52:13.868Z,44.79
2023-12-26T08:53:13.862Z,44.31
2023-12-26T08:54:13.911Z,43.99
2023-12-26T08:55:13.896Z,43.99
2023-12-26T08:56:13.838Z,43.99
2023-12-26T08:57:13.895Z,43.83
2023-12-26T08:58:13.831Z,43.99
2023-12-26T08:59:13.818Z,44.15
2023-12-26T09:00:13.914Z,44.31
2023-12-26T09:01:13.841Z,43.34
2023-12-26T09:02:13.800Z,43.51
2023-12-26T09:03:14.255Z,43.83
2023-12-26T09:04:13.877Z,43.51
2023-12-26T09:05:13.840Z,43.34
2023-12-26T09:06:13.949Z,43.83
2023-12-26T09:07:13.773Z,44.15
2023-12-26T09:08:13.762Z,43.83
2023-12-26T09:09:13.794Z,43.51
2023-12-26T09:10:13.832Z,43.51
2023-12-26T09:11:13.760Z,43.51
2023-12-26T09:12:13.780Z,43.83
2023-12-26T09:13:13.726Z,43.83
2023-12-26T09:14:13.715Z,43.67
2023-12-26T09:15:13.774Z,43.83
2023-12-26T09:16:13.700Z,44.63
2023-12-26T09:17:13.699Z,44.31
2023-12-26T09:18:13.799Z,44.47
2023-12-26T09:19:13.793Z,44.15
2023-12-26T09:20:13.699Z,44.15
2023-12-26T09:21:13.718Z,44.31
2023-12-26T09:22:13.671Z,44.47
2023-12-26T09:23:13.680Z,44.63
2023-12-26T09:24:13.702Z,44.63
2023-12-26T09:25:13.715Z,44.63
2023-12-26T09:26:13.630Z,45.12
2023-12-26T09:27:13.706Z,45.92
2023-12-26T09:28:13.617Z,45.76
2023-12-26T09:29:13.612Z,46.57
2023-12-26T09:30:13.716Z,46.41
2023-12-26T09:31:13.688Z,46.57
2023-12-26T09:32:13.635Z,46.41
2023-12-26T09:33:13.716Z,46.89
2023-12-26T09:34:13.658Z,46.73
2023-12-26T09:35:13.576Z,47.05
2023-12-26T09:36:13.869Z,47.70
2023-12-26T09:37:13.544Z,48.02
2023-12-26T09:38:13.539Z,48.50
2023-12-26T09:39:13.615Z,47.05
2023-12-26T09:40:13.573Z,47.86
2023-12-26T09:41:13.551Z,49.95
2023-12-26T09:42:13.613Z,49.79
2023-12-26T09:43:13.528Z,49.31
2023-12-26T09:44:13.495Z,48.02
2023-12-26T09:45:13.706Z,48.50
2023-12-26T09:46:13.475Z,46.57
2023-12-26T09:47:13.502Z,47.21
2023-12-26T09:48:13.723Z,46.89
2023-12-26T09:49:16.082Z,47.37
2023-12-26T09:50:13.596Z,47.21
2023-12-26T09:51:13.569Z,46.73
2023-12-26T09:52:13.537Z,47.53
2023-12-26T09:53:13.429Z,46.57
2023-12-26T09:54:13.469Z,46.73
2023-12-26T09:55:13.561Z,47.86
2023-12-26T09:56:13.410Z,47.86
2023-12-26T09:57:13.451Z,46.73
2023-12-26T09:58:13.398Z,46.25
2023-12-26T09:59:13.449Z,47.21
2023-12-26T10:00:13.414Z,47.21
2023-12-26T10:01:13.391Z,47.53
2023-12-26T10:02:13.380Z,46.73
2023-12-26T10:03:13.423Z,47.70
2023-12-26T10:04:13.452Z,46.57
2023-12-26T10:05:13.366Z,47.05
2023-12-26T10:06:13.385Z,47.21
2023-12-26T10:07:13.359Z,46.73
2023-12-26T10:08:13.392Z,46.25
2023-12-26T10:09:13.334Z,47.37
2023-12-26T10:10:13.319Z,46.57
2023-12-26T10:11:13.298Z,46.08
2023-12-26T10:12:13.473Z,45.92
2023-12-26T10:13:13.302Z,46.25
2023-12-26T10:14:13.278Z,46.25
2023-12-26T10:15:13.304Z,46.25
2023-12-26T10:16:13.256Z,48.66
2023-12-26T10:17:13.257Z,47.21
2023-12-26T10:18:13.401Z,46.41
2023-12-26T10:19:14.112Z,46.73
2023-12-26T10:20:13.223Z,47.21
2023-12-26T10:21:13.275Z,46.73
2023-12-26T10:22:13.251Z,48.50
2023-12-26T10:23:13.444Z,47.53
2023-12-26T10:24:13.237Z,47.70
2023-12-26T10:25:13.188Z,46.89
2023-12-26T10:26:13.207Z,47.53
2023-12-26T10:27:13.245Z,46.73
2023-12-26T10:28:13.265Z,46.73
2023-12-26T10:29:13.325Z,47.37
2023-12-26T10:30:13.297Z,46.89
2023-12-26T10:31:13.511Z,46.41
2023-12-26T10:32:13.146Z,46.89
2023-12-26T10:33:13.290Z,46.25
2023-12-26T10:34:13.227Z,47.05
2023-12-26T10:35:13.116Z,45.12
2023-12-26T10:36:13.155Z,43.83
2023-12-26T10:37:13.106Z,45.28
2023-12-26T10:38:13.120Z,43.67
2023-12-26T10:39:13.145Z,44.47
2023-12-26T10:40:13.082Z,44.79
2023-12-26T10:41:13.077Z,45.76
2023-12-26T10:42:13.114Z,45.60
2023-12-26T10:43:13.060Z,45.28
2023-12-26T10:44:13.082Z,46.08
2023-12-26T10:45:13.089Z,46.25
2023-12-26T10:46:13.039Z,45.12
2023-12-26T10:47:13.069Z,45.76
2023-12-26T10:48:13.136Z,46.41
2023-12-26T10:49:13.126Z,45.60
2023-12-26T10:50:13.083Z,45.76
2023-12-26T10:51:13.035Z,46.08
2023-12-26T10:52:13.074Z,46.08
2023-12-26T10:53:13.002Z,46.73
2023-12-26T10:54:13.008Z,46.73
2023-12-26T10:55:12.993Z,46.57
2023-12-26T10:56:12.977Z,45.60
2023-12-26T10:57:13.022Z,45.92
2023-12-26T10:58:12.966Z,46.57
2023-12-26T10:59:12.949Z,46.41
2023-12-26T11:00:13.041Z,46.08
2023-12-26T11:01:13.012Z,46.41
2023-12-26T11:02:16.418Z,46.25
2023-12-26T11:03:13.011Z,46.89
2023-12-26T11:04:13.087Z,47.05
2023-12-26T11:05:12.958Z,45.60
2023-12-26T11:06:12.983Z,45.12
2023-12-26T11:07:12.908Z,45.76
2023-12-26T11:08:12.876Z,45.44
2023-12-26T11:09:12.975Z,45.44
2023-12-26T11:10:12.877Z,45.92
2023-12-26T11:11:12.883Z,45.92
2023-12-26T11:12:12.906Z,45.60
2023-12-26T11:13:12.849Z,46.08
2023-12-26T11:14:12.841Z,45.60
2023-12-26T11:15:12.877Z,45.28
2023-12-26T11:16:12.914Z,46.08
2023-12-26T11:17:12.835Z,45.92
2023-12-26T11:18:12.953Z,45.76
2023-12-26T11:19:12.946Z,45.92
2023-12-26T11:20:12.815Z,45.44
2023-12-26T11:21:12.922Z,46.25
2023-12-26T11:22:12.791Z,45.60
2023-12-26T11:23:12.775Z,46.25
2023-12-26T11:24:12.803Z,46.25
2023-12-26T11:25:13.191Z,45.76
2023-12-26T11:26:12.761Z,46.25
2023-12-26T11:27:12.823Z,46.08
2023-12-26T11:28:12.741Z,45.76
2023-12-26T11:29:12.737Z,45.76
2023-12-26T11:30:12.826Z,45.60
2023-12-26T11:31:12.732Z,45.60
2023-12-26T11:32:12.835Z,45.76
2023-12-26T11:33:12.779Z,45.76
2023-12-26T11:34:12.879Z,45.92
2023-12-26T11:35:12.744Z,46.08
2023-12-26T11:36:12.754Z,45.92
2023-12-26T11:37:12.673Z,46.25
2023-12-26T11:38:12.682Z,47.05
2023-12-26T11:39:12.697Z,46.73
2023-12-26T11:40:12.660Z,46.73
2023-12-26T11:41:12.687Z,48.34
2023-12-26T11:42:12.661Z,48.02
2023-12-26T11:43:12.644Z,46.08
2023-12-26T11:44:12.636Z,46.41
2023-12-26T11:45:12.711Z,45.92
2023-12-26T11:46:12.642Z,45.60
2023-12-26T11:47:12.622Z,45.60
2023-12-26T11:48:12.705Z,46.08
2023-12-26T11:49:12.669Z,45.76
2023-12-26T11:50:12.582Z,45.28
2023-12-26T11:51:12.681Z,45.60
2023-12-26T11:52:12.595Z,46.08
2023-12-26T11:53:12.594Z,45.76
2023-12-26T11:54:12.607Z,45.92
2023-12-26T11:55:12.542Z,45.60
2023-12-26T11:56:12.540Z,46.57
2023-12-26T11:57:12.612Z,46.41
2023-12-26T11:58:12.518Z,46.57
2023-12-26T11:59:12.510Z,46.73
2023-12-26T12:00:12.553Z,46.41
2023-12-26T12:01:12.521Z,46.08
2023-12-26T12:02:12.486Z,45.76
2023-12-26T12:03:12.559Z,46.25
2023-12-26T12:04:12.669Z,45.76
2023-12-26T12:05:12.472Z,46.08
2023-12-26T12:06:12.531Z,45.12
2023-12-26T12:07:12.522Z,45.76
2023-12-26T12:08:12.483Z,46.08
2023-12-26T12:09:12.493Z,46.57
2023-12-26T12:10:12.438Z,46.41
2023-12-26T12:11:12.444Z,45.92
2023-12-26T12:12:12.467Z,45.76
2023-12-26T12:13:14.720Z,45.76
2023-12-26T12:14:12.401Z,45.60
2023-12-26T12:15:12.435Z,46.41
2023-12-26T12:16:12.383Z,48.50
2023-12-26T12:17:12.379Z,46.57
2023-12-26T12:18:12.563Z,46.25
2023-12-26T12:19:12.615Z,46.73
2023-12-26T12:20:12.423Z,46.73
2023-12-26T12:21:12.384Z,47.05
2023-12-26T12:22:12.345Z,46.41
2023-12-26T12:23:12.355Z,46.73
2023-12-26T12:24:12.481Z,47.37
2023-12-26T12:25:12.313Z,47.21
2023-12-26T12:26:12.344Z,47.21
2023-12-26T12:27:12.339Z,46.89
2023-12-26T12:28:12.307Z,45.92
2023-12-26T12:29:12.536Z,47.05
2023-12-26T12:30:12.395Z,46.73
2023-12-26T12:31:12.370Z,46.73
2023-12-26T12:32:12.348Z,46.25
2023-12-26T12:33:12.492Z,46.25
2023-12-26T12:34:12.434Z,46.57
2023-12-26T12:35:12.249Z,47.53
2023-12-26T12:36:12.426Z,46.73
2023-12-26T12:37:12.231Z,48.02
2023-12-26T12:38:12.227Z,47.37
2023-12-26T12:39:12.298Z,47.05
2023-12-26T12:40:12.221Z,47.53
2023-12-26T12:41:12.253Z,47.53
2023-12-26T12:42:12.248Z,47.53
2023-12-26T12:43:12.207Z,47.86
2023-12-26T12:44:16.688Z,48.02
2023-12-26T12:45:13.309Z,48.18
2023-12-26T12:46:12.187Z,48.34
2023-12-26T12:47:12.172Z,48.50
2023-12-26T12:48:12.486Z,49.47
2023-12-26T12:49:13.212Z,48.02
2023-12-26T12:50:12.191Z,48.66
2023-12-26T12:51:12.177Z,48.34
2023-12-26T12:52:12.181Z,48.34